createdAt,value
2017-08-25T00:00:04.081Z,91.80
2017-08-25T00:02:31.579Z,92.00
2017-08-25T00:04:59.139Z,92.10
2017-08-25T00:07:26.634Z,92.30
2017-08-25T00:09:54.204Z,92.40
2017-08-25T00:12:21.763Z,92.50
2017-08-25T00:14:49.318Z,92.50
2017-08-25T00:17:16.872Z,92.70
2017-08-25T00:19:44.444Z,92.70
2017-08-25T00:22:12.719Z,92.90
2017-08-25T00:24:40.277Z,93.10
2017-08-25T00:27:08.550Z,93.00
2017-08-25T00:29:36.067Z,93.10
2017-08-25T00:32:03.772Z,92.90
2017-08-25T00:34:31.327Z,92.30
2017-08-25T00:36:58.887Z,92.30
2017-08-25T00:39:29.317Z,92.30
2017-08-25T00:41:56.875Z,92.50
2017-08-25T00:44:24.435Z,92.80
2017-08-25T00:46:51.987Z,92.80
2017-08-25T00:49:19.656Z,92.90
2017-08-25T00:51:47.212Z,92.80
2017-08-25T00:54:14.768Z,92.40
2017-08-25T00:56:42.282Z,92.40
2017-08-25T00:59:09.778Z,92.50
2017-08-25T01:01:37.296Z,92.70
2017-08-25T01:04:04.894Z,93.10
2017-08-25T01:06:33.173Z,92.70
2017-08-25T01:09:00.738Z,92.70
2017-08-25T01:11:29.029Z,93.00
2017-08-25T01:13:56.527Z,93.10
2017-08-25T01:16:24.126Z,93.20
2017-08-25T01:18:52.503Z,93.20
2017-08-25T01:21:20.886Z,93.40
2017-08-25T01:23:48.563Z,93.10
2017-08-25T01:26:18.851Z,93.20
2017-08-25T01:28:46.532Z,93.30
2017-08-25T01:31:14.299Z,93.40
2017-08-25T01:33:41.803Z,93.50
2017-08-25T01:36:10.231Z,93.40
2017-08-25T01:38:37.803Z,93.50
2017-08-25T01:41:05.348Z,93.40
2017-08-25T01:43:32.915Z,93.40
2017-08-25T01:46:00.503Z,93.30
2017-08-25T01:48:28.027Z,93.20
2017-08-25T01:50:55.586Z,93.30
2017-08-25T01:53:23.867Z,93.40
2017-08-25T01:55:51.631Z,93.50
2017-08-25T01:58:19.147Z,93.50
2017-08-25T02:00:46.646Z,93.80
2017-08-25T02:03:14.211Z,93.70
2017-08-25T02:05:41.714Z,93.60
2017-08-25T02:08:09.323Z,93.70
2017-08-25T02:10:36.862Z,93.90
2017-08-25T02:13:04.442Z,93.60
2017-08-25T02:15:32.013Z,93.30
2017-08-25T02:17:59.658Z,93.20
2017-08-25T02:20:27.154Z,93.30
2017-08-25T02:22:57.538Z,93.40
2017-08-25T02:25:25.103Z,93.20
2017-08-25T02:27:52.669Z,93.40
2017-08-25T02:30:20.942Z,93.70
2017-08-25T02:32:48.499Z,93.90
2017-08-25T02:35:16.055Z,93.80
2017-08-25T02:37:43.611Z,93.50
2017-08-25T02:40:11.851Z,93.70
2017-08-25T02:42:39.371Z,93.30
2017-08-25T02:45:06.868Z,93.50
2017-08-25T02:47:34.373Z,93.60
2017-08-25T02:50:01.919Z,93.60
2017-08-25T02:52:29.415Z,93.50
2017-08-25T02:54:56.939Z,93.60
2017-08-25T02:57:24.446Z,93.40
2017-08-25T02:59:52.050Z,93.40
2017-08-25T03:02:19.547Z,93.40
2017-08-25T03:04:47.187Z,93.70
2017-08-25T03:07:14.746Z,94.30
2017-08-25T03:09:42.264Z,94.60
2017-08-25T03:12:09.950Z,94.70
2017-08-25T03:14:38.971Z,94.80
2017-08-25T03:17:06.502Z,94.80
2017-08-25T03:19:34.061Z,95.00
2017-08-25T03:22:01.618Z,95.00
2017-08-25T03:24:29.188Z,95.20
2017-08-25T03:26:56.743Z,95.20
2017-08-25T03:29:24.359Z,95.30
2017-08-25T03:31:51.858Z,95.20
2017-08-25T03:34:19.503Z,95.40
2017-08-25T03:36:47.079Z,95.50
2017-08-25T03:39:15.303Z,95.10
2017-08-25T03:41:43.632Z,95.10
2017-08-25T03:44:11.203Z,95.70
2017-08-25T03:46:38.748Z,95.90
2017-08-25T03:49:06.309Z,95.70
2017-08-25T03:51:33.839Z,95.90
2017-08-25T03:54:03.355Z,95.90
2017-08-25T03:56:31.769Z,95.90
2017-08-25T03:58:59.311Z,95.90
2017-08-25T04:01:26.831Z,96.00
2017-08-25T04:03:54.423Z,96.30
2017-08-25T04:06:22.087Z,96.30
2017-08-25T04:08:49.587Z,96.20
2017-08-25T04:11:17.207Z,96.20
2017-08-25T04:13:44.710Z,96.10
2017-08-25T04:16:12.954Z,96.10
2017-08-25T04:18:40.499Z,96.10
2017-08-25T04:21:08.015Z,96.20
2017-08-25T04:23:36.375Z,96.20
2017-08-25T04:26:04.621Z,96.40
2017-08-25T04:28:32.166Z,96.50
2017-08-25T04:31:00.448Z,96.60
2017-08-25T04:33:28.276Z,96.40
2017-08-25T04:35:55.851Z,96.60
2017-08-25T04:38:23.375Z,96.40
2017-08-25T04:40:50.879Z,96.50
2017-08-25T04:43:18.439Z,96.60
2017-08-25T04:45:45.938Z,96.60
2017-08-25T04:48:13.567Z,96.40
2017-08-25T04:50:41.067Z,96.20
2017-08-25T04:53:08.691Z,96.00
2017-08-25T04:55:36.196Z,95.90
2017-08-25T04:58:03.790Z,95.70
2017-08-25T05:00:31.356Z,95.50
2017-08-25T05:02:58.876Z,95.50
2017-08-25T05:05:26.451Z,95.40
2017-08-25T05:07:54.751Z,95.70
2017-08-25T05:10:22.327Z,95.60
2017-08-25T05:12:49.867Z,95.90
2017-08-25T05:15:17.427Z,95.80
2017-08-25T05:17:44.951Z,95.80
2017-08-25T05:20:12.544Z,95.60
2017-08-25T05:22:40.047Z,95.60
2017-08-25T05:25:07.660Z,96.10
2017-08-25T05:27:36.342Z,96.40
2017-08-25T05:30:03.908Z,96.20
2017-08-25T05:32:31.467Z,96.00
2017-08-25T05:34:59.023Z,96.20
2017-08-25T05:37:26.939Z,96.10
2017-08-25T05:39:54.550Z,96.00
2017-08-25T05:42:22.056Z,95.80
2017-08-25T05:44:49.578Z,95.70
2017-08-25T05:47:17.084Z,96.00
2017-08-25T05:49:44.651Z,96.50
2017-08-25T05:52:12.671Z,96.30
2017-08-25T05:54:40.214Z,96.20
2017-08-25T05:57:07.775Z,95.20
2017-08-25T05:59:35.290Z,95.20
2017-08-25T06:02:02.882Z,94.60
2017-08-25T06:04:30.398Z,94.30
2017-08-25T06:06:57.986Z,94.60
2017-08-25T06:09:25.578Z,93.90
2017-08-25T06:11:53.136Z,93.50
2017-08-25T06:14:20.787Z,93.90
2017-08-25T06:16:48.298Z,93.50
2017-08-25T06:19:15.820Z,93.40
2017-08-25T06:21:43.323Z,93.00
2017-08-25T06:24:10.919Z,93.00
2017-08-25T06:26:39.012Z,92.70
2017-08-25T06:29:06.546Z,92.70
2017-08-25T06:31:34.111Z,92.20
2017-08-25T06:34:01.666Z,92.50
2017-08-25T06:36:29.241Z,92.60
2017-08-25T06:38:57.091Z,93.30
2017-08-25T06:41:24.594Z,91.70
2017-08-25T06:43:52.111Z,92.00
2017-08-25T06:46:20.380Z,92.40
2017-08-25T06:48:47.943Z,92.30
2017-08-25T06:51:15.503Z,92.90
2017-08-25T06:53:43.852Z,92.70
2017-08-25T06:56:11.375Z,92.40
2017-08-25T06:58:38.912Z,92.50
2017-08-25T07:01:06.859Z,90.60
2017-08-25T07:03:34.458Z,91.00
2017-08-25T07:06:02.079Z,91.50
2017-08-25T07:08:29.703Z,91.30
2017-08-25T07:10:57.220Z,91.30
2017-08-25T07:13:24.719Z,90.40
2017-08-25T07:15:52.314Z,90.50
2017-08-25T07:18:19.810Z,90.10
2017-08-25T07:20:47.315Z,90.10
2017-08-25T07:23:15.615Z,90.20
2017-08-25T07:25:43.927Z,90.20
2017-08-25T07:28:11.428Z,87.90
2017-08-25T07:30:38.998Z,87.40
2017-08-25T07:33:06.870Z,88.20
2017-08-25T07:35:34.439Z,86.60
2017-08-25T07:38:01.934Z,86.20
2017-08-25T07:40:29.542Z,86.50
2017-08-25T07:42:57.103Z,86.80
2017-08-25T07:45:24.662Z,85.60
2017-08-25T07:47:52.218Z,87.00
2017-08-25T07:50:19.779Z,88.30
2017-08-25T07:52:47.280Z,86.80
2017-08-25T07:55:15.571Z,86.60
2017-08-25T07:57:43.178Z,85.00
2017-08-25T08:00:10.739Z,84.20
2017-08-25T08:02:38.294Z,84.50
2017-08-25T08:05:05.794Z,82.20
2017-08-25T08:07:33.326Z,82.10
2017-08-25T08:10:00.870Z,81.20
2017-08-25T08:12:29.050Z,82.00
2017-08-25T08:14:57.418Z,80.20
2017-08-25T08:17:25.003Z,80.60
2017-08-25T08:19:53.250Z,80.40
2017-08-25T08:22:20.750Z,80.20
2017-08-25T08:24:48.376Z,80.10
2017-08-25T08:27:16.338Z,80.80
2017-08-25T08:29:43.903Z,79.40
2017-08-25T08:32:11.815Z,78.00
2017-08-25T08:34:40.044Z,78.70
2017-08-25T08:37:08.219Z,77.90
2017-08-25T08:39:35.739Z,76.10
2017-08-25T08:42:03.460Z,77.70
2017-08-25T08:44:31.200Z,77.60
2017-08-25T08:46:58.758Z,77.40
2017-08-25T08:49:26.270Z,78.70
2017-08-25T08:51:53.766Z,78.70
2017-08-25T08:54:22.159Z,76.00
2017-08-25T08:56:49.711Z,76.10
2017-08-25T08:59:17.227Z,75.70
2017-08-25T09:01:44.723Z,74.40
2017-08-25T09:04:12.291Z,74.90
2017-08-25T09:06:39.847Z,73.20
2017-08-25T09:09:07.402Z,72.30
2017-08-25T09:11:34.914Z,73.70
2017-08-25T09:14:02.414Z,72.60
2017-08-25T09:16:29.932Z,74.30
2017-08-25T09:18:57.758Z,73.50
2017-08-25T09:21:25.303Z,74.00
2017-08-25T09:23:52.806Z,76.20
2017-08-25T09:26:20.318Z,71.50
2017-08-25T09:28:48.571Z,72.40
2017-08-25T09:31:16.168Z,71.40
2017-08-25T09:33:43.715Z,72.40
2017-08-25T09:36:11.285Z,71.40
2017-08-25T09:38:38.835Z,70.30
2017-08-25T09:41:06.350Z,70.70
2017-08-25T09:43:33.851Z,70.40
2017-08-25T09:46:01.365Z,71.00
2017-08-25T09:48:28.979Z,71.70
2017-08-25T09:50:56.518Z,72.00
2017-08-25T09:53:24.078Z,72.60
2017-08-25T09:55:51.995Z,69.90
2017-08-25T09:58:19.511Z,71.10
2017-08-25T10:00:47.123Z,72.40
2017-08-25T10:03:14.727Z,72.80
2017-08-25T10:05:42.286Z,72.10
2017-08-25T10:08:10.562Z,70.60
2017-08-25T10:10:38.895Z,70.40
2017-08-25T10:13:06.498Z,69.00
2017-08-25T10:15:33.999Z,70.00
2017-08-25T10:18:01.611Z,71.00
2017-08-25T10:20:29.180Z,71.80
2017-08-25T10:22:56.734Z,70.00
2017-08-25T10:25:25.107Z,69.80
2017-08-25T10:27:52.648Z,72.60
2017-08-25T10:30:21.064Z,72.50
2017-08-25T10:32:48.646Z,71.10
2017-08-25T10:35:28.149Z,70.20
2017-08-25T10:38:07.587Z,68.80
2017-08-25T10:40:47.126Z,68.80
2017-08-25T10:43:26.567Z,67.40
2017-08-25T10:45:54.062Z,68.70
2017-08-25T10:48:21.680Z,66.40
2017-08-25T10:50:49.959Z,64.40
2017-08-25T10:53:18.372Z,64.40
2017-08-25T10:55:46.090Z,62.80
2017-08-25T10:58:14.378Z,64.70
2017-08-25T11:00:41.899Z,64.40
2017-08-25T11:03:09.419Z,62.50
2017-08-25T11:05:36.934Z,58.70
2017-08-25T11:08:04.510Z,59.20
2017-08-25T11:10:32.166Z,58.80
2017-08-25T11:13:00.852Z,57.60
2017-08-25T11:15:28.428Z,54.60
2017-08-25T11:17:55.970Z,55.50
2017-08-25T11:20:23.535Z,54.50
2017-08-25T11:22:51.090Z,56.20
2017-08-25T11:25:18.615Z,56.80
2017-08-25T11:27:46.211Z,55.40
2017-08-25T11:30:13.767Z,54.90
2017-08-25T11:32:41.383Z,56.10
2017-08-25T11:35:08.991Z,54.20
2017-08-25T11:37:37.366Z,52.90
2017-08-25T11:40:05.537Z,53.00
2017-08-25T11:42:33.097Z,48.90
2017-08-25T11:45:00.654Z,47.60
2017-08-25T11:47:28.219Z,45.00
2017-08-25T11:49:55.883Z,43.80
2017-08-25T11:52:23.553Z,44.30
2017-08-25T11:54:51.055Z,46.10
2017-08-25T11:57:18.651Z,46.10
2017-08-25T11:59:46.150Z,50.00
2017-08-25T12:02:13.688Z,50.20
2017-08-25T12:04:41.211Z,49.60
2017-08-25T12:07:08.799Z,49.40
2017-08-25T12:09:37.370Z,49.10
2017-08-25T12:12:04.886Z,50.70
2017-08-25T12:14:32.379Z,51.90
2017-08-25T12:16:59.902Z,51.90
2017-08-25T12:19:27.398Z,53.50
2017-08-25T12:21:55.778Z,56.80
2017-08-25T12:24:23.359Z,56.90
2017-08-25T12:26:50.903Z,55.90
2017-08-25T12:29:18.574Z,55.90
2017-08-25T12:31:46.128Z,56.60
2017-08-25T12:34:13.648Z,59.10
2017-08-25T12:36:41.242Z,58.60
2017-08-25T12:39:09.510Z,58.30
2017-08-25T12:41:37.806Z,58.80
2017-08-25T12:44:05.318Z,58.80
2017-08-25T12:46:33.731Z,59.30
2017-08-25T12:49:01.242Z,61.50
2017-08-25T12:51:28.843Z,59.00
2017-08-25T12:53:56.359Z,61.20
2017-08-25T12:56:23.858Z,59.50
2017-08-25T12:58:51.414Z,61.00
2017-08-25T13:01:18.910Z,62.90
2017-08-25T13:03:46.539Z,61.10
2017-08-25T13:06:14.042Z,62.30
2017-08-25T13:08:41.659Z,62.10
2017-08-25T13:11:09.642Z,61.00
2017-08-25T13:13:37.155Z,59.60
2017-08-25T13:16:04.740Z,60.80
2017-08-25T13:18:32.303Z,60.60
2017-08-25T13:20:59.864Z,61.60
2017-08-25T13:23:27.415Z,63.30
2017-08-25T13:25:54.914Z,63.50
2017-08-25T13:28:22.534Z,64.10
2017-08-25T13:30:50.035Z,63.80
2017-08-25T13:33:18.479Z,62.20
2017-08-25T13:35:46.034Z,59.60
2017-08-25T13:38:13.589Z,58.80
2017-08-25T13:40:41.155Z,58.40
2017-08-25T13:43:08.654Z,58.40
2017-08-25T13:45:36.254Z,58.00
2017-08-25T13:48:03.750Z,58.40
2017-08-25T13:50:31.292Z,59.50
2017-08-25T13:52:58.848Z,57.60
2017-08-25T13:55:26.367Z,56.80
2017-08-25T13:57:53.862Z,57.80
2017-08-25T14:00:21.422Z,60.30
2017-08-25T14:02:48.927Z,58.80
2017-08-25T14:05:16.448Z,57.20
2017-08-25T14:07:43.996Z,57.30
2017-08-25T14:10:11.554Z,57.50
2017-08-25T14:12:39.972Z,57.20
2017-08-25T14:15:07.491Z,57.20
2017-08-25T14:17:35.057Z,58.50
2017-08-25T14:20:02.558Z,57.80
2017-08-25T14:22:30.168Z,55.70
2017-08-25T14:24:57.734Z,56.60
2017-08-25T14:27:25.278Z,55.40
2017-08-25T14:29:52.839Z,54.90
2017-08-25T14:32:20.410Z,53.20
2017-08-25T14:34:47.967Z,52.50
2017-08-25T14:37:15.482Z,53.40
2017-08-25T14:39:43.078Z,55.00
2017-08-25T14:42:11.354Z,53.00
2017-08-25T14:44:39.615Z,53.10
2017-08-25T14:47:07.131Z,53.00
2017-08-25T14:49:34.651Z,50.20
2017-08-25T14:52:02.168Z,49.30
2017-08-25T14:54:29.666Z,49.00
2017-08-25T14:56:57.182Z,48.50
2017-08-25T14:59:24.779Z,48.10
2017-08-25T15:01:53.050Z,50.00
2017-08-25T15:04:20.547Z,51.60
2017-08-25T15:06:48.067Z,51.80
2017-08-25T15:09:15.638Z,52.20
2017-08-25T15:11:44.178Z,52.10
2017-08-25T15:14:11.675Z,52.80
2017-08-25T15:16:39.235Z,54.10
2017-08-25T15:19:06.823Z,54.20
2017-08-25T15:21:34.790Z,54.60
2017-08-25T15:24:02.727Z,54.80
2017-08-25T15:26:30.391Z,54.00
2017-08-25T15:28:57.944Z,55.90
2017-08-25T15:31:26.338Z,55.50
2017-08-25T15:33:53.850Z,55.20
2017-08-25T15:36:21.438Z,54.20
2017-08-25T15:38:49.117Z,53.50
2017-08-25T15:41:16.622Z,52.60
2017-08-25T15:43:45.143Z,47.10
2017-08-25T15:46:13.315Z,45.20
2017-08-25T15:48:40.870Z,45.10
2017-08-25T15:51:08.366Z,45.70
2017-08-25T15:53:35.878Z,46.60
2017-08-25T15:56:03.475Z,47.10
2017-08-25T15:58:30.999Z,49.10
2017-08-25T16:00:58.811Z,48.40
2017-08-25T16:03:26.428Z,49.60
2017-08-25T16:05:53.995Z,51.80
2017-08-25T16:08:21.499Z,49.50
2017-08-25T16:10:49.106Z,51.00
2017-08-25T16:13:16.634Z,52.00
2017-08-25T16:15:44.663Z,51.30
2017-08-25T16:18:12.199Z,52.90
2017-08-25T16:20:39.763Z,53.70
2017-08-25T16:23:07.326Z,54.20
2017-08-25T16:25:34.838Z,55.10
2017-08-25T16:28:02.435Z,54.70
2017-08-25T16:30:30.015Z,55.80
2017-08-25T16:32:57.546Z,55.70
2017-08-25T16:35:25.063Z,55.20
2017-08-25T16:37:52.670Z,56.60
2017-08-25T16:40:20.190Z,55.80
2017-08-25T16:42:47.791Z,56.90
2017-08-25T16:45:15.353Z,57.30
2017-08-25T16:47:42.907Z,57.50
2017-08-25T16:50:10.430Z,57.80
2017-08-25T16:52:38.023Z,58.90
2017-08-25T16:55:05.595Z,58.40
2017-08-25T16:57:34.011Z,58.70
2017-08-25T17:00:02.362Z,58.20
2017-08-25T17:02:29.900Z,58.10
2017-08-25T17:04:57.407Z,59.10
2017-08-25T17:07:24.923Z,59.90
2017-08-25T17:09:52.470Z,59.70
2017-08-25T17:12:20.026Z,60.80
2017-08-25T17:14:47.596Z,62.20
2017-08-25T17:17:15.120Z,61.30
2017-08-25T17:19:42.627Z,62.00
2017-08-25T17:22:10.172Z,61.20
2017-08-25T17:24:37.727Z,61.70
2017-08-25T17:27:05.288Z,62.80
2017-08-25T17:29:32.786Z,63.10
2017-08-25T17:32:00.502Z,63.10
2017-08-25T17:34:28.370Z,63.70
2017-08-25T17:36:56.751Z,64.30
2017-08-25T17:39:24.250Z,64.30
2017-08-25T17:41:51.791Z,64.20
2017-08-25T17:44:19.294Z,64.70
2017-08-25T17:46:46.884Z,65.10
2017-08-25T17:49:14.454Z,66.10
2017-08-25T17:51:42.098Z,66.50
2017-08-25T17:54:09.763Z,67.50
2017-08-25T17:56:37.428Z,67.10
2017-08-25T17:59:04.987Z,66.90
2017-08-25T18:01:32.500Z,67.20
2017-08-25T18:04:00.104Z,67.60
2017-08-25T18:06:27.610Z,68.30
2017-08-25T18:08:55.314Z,67.90
2017-08-25T18:11:22.919Z,69.40
2017-08-25T18:13:50.538Z,69.20
2017-08-25T18:16:18.104Z,70.30
2017-08-25T18:18:45.627Z,69.80
2017-08-25T18:21:13.134Z,70.20
2017-08-25T18:23:40.670Z,70.70
2017-08-25T18:26:08.235Z,71.00
2017-08-25T18:28:35.850Z,71.50
2017-08-25T18:31:06.318Z,71.80
2017-08-25T18:33:33.843Z,72.10
2017-08-25T18:36:01.439Z,72.80
2017-08-25T18:38:29.002Z,73.20
2017-08-25T18:40:57.383Z,73.80
2017-08-25T18:43:24.939Z,75.10
2017-08-25T18:45:52.463Z,75.90
2017-08-25T18:48:19.971Z,77.70
2017-08-25T18:50:47.724Z,78.90
2017-08-25T18:53:15.237Z,79.60
2017-08-25T18:55:42.834Z,81.00
2017-08-25T18:58:10.408Z,80.40
2017-08-25T19:00:37.926Z,80.70
2017-08-25T19:03:06.230Z,80.90
2017-08-25T19:05:33.791Z,81.60
2017-08-25T19:08:01.404Z,81.90
2017-08-25T19:10:29.006Z,82.50
2017-08-25T19:12:56.567Z,82.90
2017-08-25T19:15:24.119Z,83.50
2017-08-25T19:17:52.390Z,83.90
2017-08-25T19:20:19.931Z,84.00
2017-08-25T19:22:47.441Z,84.50
2017-08-25T19:25:14.983Z,86.40
2017-08-25T19:27:42.622Z,85.80
2017-08-25T19:30:10.149Z,85.80
2017-08-25T19:32:37.674Z,86.40
2017-08-25T19:35:05.215Z,86.60
2017-08-25T19:37:32.774Z,87.00
2017-08-25T19:40:00.396Z,87.20
2017-08-25T19:42:27.903Z,87.60
2017-08-25T19:44:56.139Z,88.30
2017-08-25T19:47:23.722Z,88.90
2017-08-25T19:49:51.235Z,89.90
2017-08-25T19:52:18.951Z,89.40
2017-08-25T19:54:46.459Z,90.10
2017-08-25T19:57:14.064Z,90.00
2017-08-25T19:59:42.214Z,89.90
2017-08-25T20:02:10.208Z,90.10
2017-08-25T20:04:37.866Z,90.30
2017-08-25T20:07:05.391Z,90.50
2017-08-25T20:09:32.990Z,90.60
2017-08-25T20:12:00.542Z,90.80
2017-08-25T20:14:28.147Z,90.70
2017-08-25T20:16:55.671Z,90.70
2017-08-25T20:19:23.176Z,90.70
2017-08-25T20:21:50.788Z,90.80
2017-08-25T20:24:18.339Z,90.80
2017-08-25T20:26:45.876Z,91.00
2017-08-25T20:29:13.460Z,90.90
2017-08-25T20:31:40.979Z,91.00
2017-08-25T20:34:08.487Z,91.20
2017-08-25T20:36:36.026Z,91.40
2017-08-25T20:39:03.551Z,91.30
2017-08-25T20:41:31.879Z,91.60
2017-08-25T20:43:59.422Z,91.50
2017-08-25T20:46:26.931Z,91.60
2017-08-25T20:48:54.642Z,91.70
2017-08-25T20:51:22.205Z,91.80
2017-08-25T20:53:49.727Z,91.80
2017-08-25T20:56:17.239Z,91.90
2017-08-25T20:58:44.781Z,92.10
2017-08-25T21:01:15.011Z,92.20
2017-08-25T21:03:43.238Z,92.10
2017-08-25T21:06:10.859Z,92.20
2017-08-25T21:08:39.162Z,92.20
2017-08-25T21:11:06.668Z,92.20
2017-08-25T21:13:34.199Z,92.30
2017-08-25T21:16:01.718Z,92.40
2017-08-25T21:18:30.063Z,92.70
2017-08-25T21:20:58.031Z,92.70
2017-08-25T21:23:25.594Z,92.60
2017-08-25T21:25:53.250Z,92.70
2017-08-25T21:28:21.238Z,92.50
2017-08-25T21:30:49.594Z,92.80
2017-08-25T21:33:17.142Z,92.80
2017-08-25T21:35:45.439Z,92.90
2017-08-25T21:38:12.991Z,92.90
2017-08-25T21:40:40.531Z,92.80
2017-08-25T21:43:09.615Z,92.70
2017-08-25T21:45:37.201Z,92.70
2017-08-25T21:48:04.758Z,92.80
2017-08-25T21:50:32.283Z,92.70
2017-08-25T21:52:59.803Z,92.80
2017-08-25T21:55:27.330Z,92.80
2017-08-25T21:57:54.898Z,92.60
2017-08-25T22:00:24.263Z,92.70
2017-08-25T22:02:51.872Z,92.60
2017-08-25T22:05:19.423Z,92.70
2017-08-25T22:07:46.978Z,92.90
2017-08-25T22:10:14.543Z,92.90
2017-08-25T22:12:42.050Z,93.10
2017-08-25T22:15:09.590Z,92.90
2017-08-25T22:17:37.112Z,92.90
2017-08-25T22:20:04.676Z,93.00
2017-08-25T22:22:32.575Z,93.00
2017-08-25T22:25:00.078Z,93.00
2017-08-25T22:27:27.650Z,93.10
2017-08-25T22:29:55.215Z,93.30
2017-08-25T22:32:22.743Z,93.30
2017-08-25T22:34:50.902Z,93.50
2017-08-25T22:37:18.439Z,93.50
2017-08-25T22:39:46.371Z,93.60
2017-08-25T22:42:13.931Z,93.80
2017-08-25T22:44:41.486Z,93.90
2017-08-25T22:47:09.056Z,94.00
2017-08-25T22:49:37.384Z,94.00
2017-08-25T22:52:04.907Z,94.10
2017-08-25T22:54:32.443Z,94.20
2017-08-25T22:57:00.002Z,94.30
2017-08-25T22:59:27.618Z,94.40
2017-08-25T23:01:55.122Z,94.60
2017-08-25T23:04:22.679Z,94.60
2017-08-25T23:06:50.234Z,94.60
2017-08-25T23:09:17.795Z,94.60
2017-08-25T23:11:45.415Z,94.70
2017-08-25T23:14:13.014Z,94.60
2017-08-25T23:16:41.496Z,94.70
2017-08-25T23:19:09.059Z,94.80
2017-08-25T23:21:36.567Z,94.70
2017-08-25T23:24:04.101Z,95.00
2017-08-25T23:26:31.611Z,95.00
2017-08-25T23:29:00.002Z,95.10
2017-08-25T23:31:27.566Z,95.50
2017-08-25T23:33:55.090Z,95.10
2017-08-25T23:36:22.691Z,95.20
2017-08-25T23:38:50.860Z,95.20
2017-08-25T23:41:18.378Z,95.30
2017-08-25T23:43:46.092Z,95.30
2017-08-25T23:46:13.634Z,95.50
2017-08-25T23:48:42.843Z,95.50
2017-08-25T23:51:10.466Z,95.50
2017-08-25T23:53:38.055Z,95.50
2017-08-25T23:56:06.378Z,95.70
2017-08-25T23:58:33.985Z,95.80
